sensor_id;sensor_type;location;lat;lon;timestamp;P1;durP1;ratioP1;P2;durP2;ratioP2
71610;SDS011;59459;51.172;6.682;2024-02-21T00:00:11;22.77;;;6.73;;
71610;SDS011;59459;51.172;6.682;2024-02-21T00:02:37;20.80;;;5.70;;
71610;SDS011;59459;51.172;6.682;2024-02-21T00:05:02;18.43;;;5.87;;
71610;SDS011;59459;51.172;6.682;2024-02-21T00:07:27;19.20;;;6.07;;
71610;SDS011;59459;51.172;6.682;2024-02-21T00:09:53;20.37;;;6.40;;
71610;SDS011;59459;51.172;6.682;2024-02-21T00:12:18;19.00;;;5.93;;
71610;SDS011;59459;51.172;6.682;2024-02-21T00:14:43;18.23;;;5.57;;
71610;SDS011;59459;51.172;6.682;2024-02-21T00:17:08;20.07;;;5.57;;
71610;SDS011;59459;51.172;6.682;2024-02-21T00:19:34;26.10;;;7.43;;
71610;SDS011;59459;51.172;6.682;2024-02-21T00:22:00;18.97;;;5.63;;
71610;SDS011;59459;51.172;6.682;2024-02-21T00:24:35;20.17;;;5.88;;
71610;SDS011;59459;51.172;6.682;2024-02-21T00:27:01;20.47;;;6.20;;
71610;SDS011;59459;51.172;6.682;2024-02-21T00:29:27;16.97;;;5.40;;
71610;SDS011;59459;51.172;6.682;2024-02-21T00:31:52;21.97;;;5.83;;
71610;SDS011;59459;51.172;6.682;2024-02-21T00:34:52;18.30;;;5.13;;
71610;SDS011;59459;51.172;6.682;2024-02-21T00:37:17;20.47;;;5.70;;
71610;SDS011;59459;51.172;6.682;2024-02-21T00:39:42;18.87;;;5.77;;
71610;SDS011;59459;51.172;6.682;2024-02-21T00:42:07;18.73;;;5.47;;
71610;SDS011;59459;51.172;6.682;2024-02-21T00:44:33;20.60;;;6.23;;
71610;SDS011;59459;51.172;6.682;2024-02-21T00:46:58;19.00;;;5.87;;
71610;SDS011;59459;51.172;6.682;2024-02-21T00:49:23;23.40;;;7.17;;
71610;SDS011;59459;51.172;6.682;2024-02-21T00:51:48;19.93;;;7.33;;
71610;SDS011;59459;51.172;6.682;2024-02-21T00:54:14;16.47;;;5.47;;
71610;SDS011;59459;51.172;6.682;2024-02-21T00:56:39;17.47;;;6.57;;
71610;SDS011;59459;51.172;6.682;2024-02-21T00:59:11;16.33;;;6.40;;
71610;SDS011;59459;51.172;6.682;2024-02-21T01:01:36;17.08;;;6.03;;
71610;SDS011;59459;51.172;6.682;2024-02-21T01:04:01;22.33;;;6.67;;
71610;SDS011;59459;51.172;6.682;2024-02-21T01:06:26;13.73;;;5.33;;
71610;SDS011;59459;51.172;6.682;2024-02-21T01:08:52;18.90;;;6.17;;
71610;SDS011;59459;51.172;6.682;2024-02-21T01:11:17;19.87;;;6.07;;
71610;SDS011;59459;51.172;6.682;2024-02-21T01:13:48;19.25;;;5.78;;
71610;SDS011;59459;51.172;6.682;2024-02-21T01:16:21;23.30;;;6.20;;
71610;SDS011;59459;51.172;6.682;2024-02-21T01:18:46;17.53;;;5.43;;
71610;SDS011;59459;51.172;6.682;2024-02-21T01:21:17;19.07;;;6.60;;
71610;SDS011;59459;51.172;6.682;2024-02-21T01:23:44;24.27;;;6.13;;
71610;SDS011;59459;51.172;6.682;2024-02-21T01:26:09;17.57;;;6.00;;
71610;SDS011;59459;51.172;6.682;2024-02-21T01:28:38;18.70;;;5.97;;
71610;SDS011;59459;51.172;6.682;2024-02-21T01:31:03;19.07;;;6.07;;
71610;SDS011;59459;51.172;6.682;2024-02-21T01:33:28;15.40;;;6.18;;
71610;SDS011;59459;51.172;6.682;2024-02-21T01:35:59;20.07;;;6.00;;
71610;SDS011;59459;51.172;6.682;2024-02-21T01:38:24;20.33;;;5.67;;
71610;SDS011;59459;51.172;6.682;2024-02-21T01:40:49;22.37;;;6.20;;
71610;SDS011;59459;51.172;6.682;2024-02-21T01:43:18;21.20;;;5.57;;
71610;SDS011;59459;51.172;6.682;2024-02-21T01:45:45;22.45;;;6.43;;
71610;SDS011;59459;51.172;6.682;2024-02-21T01:48:11;18.60;;;5.32;;
71610;SDS011;59459;51.172;6.682;2024-02-21T01:50:37;16.33;;;5.27;;
71610;SDS011;59459;51.172;6.682;2024-02-21T01:53:02;15.47;;;5.47;;
71610;SDS011;59459;51.172;6.682;2024-02-21T01:55:37;16.83;;;5.20;;
71610;SDS011;59459;51.172;6.682;2024-02-21T01:58:05;15.00;;;5.73;;
71610;SDS011;59459;51.172;6.682;2024-02-21T02:00:31;18.13;;;6.10;;
71610;SDS011;59459;51.172;6.682;2024-02-21T02:02:56;18.27;;;5.20;;
71610;SDS011;59459;51.172;6.682;2024-02-21T02:05:21;18.43;;;5.57;;
71610;SDS011;59459;51.172;6.682;2024-02-21T02:07:47;16.73;;;5.47;;
71610;SDS011;59459;51.172;6.682;2024-02-21T02:10:12;19.70;;;5.60;;
71610;SDS011;59459;51.172;6.682;2024-02-21T02:12:37;14.48;;;5.20;;
71610;SDS011;59459;51.172;6.682;2024-02-21T02:15:03;15.10;;;5.10;;
71610;SDS011;59459;51.172;6.682;2024-02-21T02:17:31;18.45;;;5.15;;
71610;SDS011;59459;51.172;6.682;2024-02-21T02:19:57;16.63;;;5.80;;
71610;SDS011;59459;51.172;6.682;2024-02-21T02:22:22;19.17;;;5.40;;
71610;SDS011;59459;51.172;6.682;2024-02-21T02:24:48;18.43;;;5.87;;
71610;SDS011;59459;51.172;6.682;2024-02-21T02:27:13;14.13;;;6.30;;
71610;SDS011;59459;51.172;6.682;2024-02-21T02:29:38;15.00;;;5.40;;
71610;SDS011;59459;51.172;6.682;2024-02-21T02:32:04;17.83;;;5.37;;
71610;SDS011;59459;51.172;6.682;2024-02-21T02:34:29;18.38;;;5.53;;
71610;SDS011;59459;51.172;6.682;2024-02-21T02:36:55;21.60;;;5.60;;
71610;SDS011;59459;51.172;6.682;2024-02-21T02:39:21;18.45;;;4.70;;
71610;SDS011;59459;51.172;6.682;2024-02-21T02:41:46;15.87;;;5.30;;
71610;SDS011;59459;51.172;6.682;2024-02-21T02:44:12;18.70;;;5.57;;
71610;SDS011;59459;51.172;6.682;2024-02-21T02:46:43;16.33;;;5.80;;
71610;SDS011;59459;51.172;6.682;2024-02-21T02:49:12;16.23;;;5.40;;
71610;SDS011;59459;51.172;6.682;2024-02-21T02:51:41;16.80;;;6.27;;
71610;SDS011;59459;51.172;6.682;2024-02-21T02:54:06;20.33;;;6.10;;
71610;SDS011;59459;51.172;6.682;2024-02-21T02:56:31;15.07;;;5.03;;
71610;SDS011;59459;51.172;6.682;2024-02-21T02:58:56;15.60;;;4.97;;
71610;SDS011;59459;51.172;6.682;2024-02-21T03:01:22;18.23;;;4.97;;
71610;SDS011;59459;51.172;6.682;2024-02-21T03:03:47;17.57;;;4.80;;
71610;SDS011;59459;51.172;6.682;2024-02-21T03:06:12;18.10;;;5.33;;
71610;SDS011;59459;51.172;6.682;2024-02-21T03:08:40;16.57;;;4.90;;
71610;SDS011;59459;51.172;6.682;2024-02-21T03:11:09;16.05;;;4.90;;
71610;SDS011;59459;51.172;6.682;2024-02-21T03:13:38;16.27;;;4.97;;
71610;SDS011;59459;51.172;6.682;2024-02-21T03:16:04;18.90;;;5.40;;
71610;SDS011;59459;51.172;6.682;2024-02-21T03:18:29;17.23;;;5.13;;
71610;SDS011;59459;51.172;6.682;2024-02-21T03:20:54;21.10;;;5.47;;
71610;SDS011;59459;51.172;6.682;2024-02-21T03:23:20;18.87;;;5.17;;
71610;SDS011;59459;51.172;6.682;2024-02-21T03:25:45;18.00;;;5.33;;
71610;SDS011;59459;51.172;6.682;2024-02-21T03:28:10;15.85;;;5.22;;
71610;SDS011;59459;51.172;6.682;2024-02-21T03:30:36;14.67;;;5.33;;
71610;SDS011;59459;51.172;6.682;2024-02-21T03:33:01;15.10;;;4.73;;
71610;SDS011;59459;51.172;6.682;2024-02-21T03:35:26;14.40;;;5.10;;
71610;SDS011;59459;51.172;6.682;2024-02-21T03:37:53;14.85;;;5.70;;
71610;SDS011;59459;51.172;6.682;2024-02-21T03:40:18;16.03;;;4.43;;
71610;SDS011;59459;51.172;6.682;2024-02-21T03:42:43;19.80;;;4.97;;
71610;SDS011;59459;51.172;6.682;2024-02-21T03:45:14;13.80;;;4.43;;
71610;SDS011;59459;51.172;6.682;2024-02-21T03:47:42;14.27;;;5.33;;
71610;SDS011;59459;51.172;6.682;2024-02-21T03:50:08;14.53;;;5.20;;
71610;SDS011;59459;51.172;6.682;2024-02-21T03:52:33;12.63;;;4.22;;
71610;SDS011;59459;51.172;6.682;2024-02-21T03:54:59;15.13;;;5.07;;
71610;SDS011;59459;51.172;6.682;2024-02-21T03:57:24;14.37;;;4.80;;
71610;SDS011;59459;51.172;6.682;2024-02-21T03:59:50;16.30;;;4.87;;
71610;SDS011;59459;51.172;6.682;2024-02-21T04:02:15;13.95;;;4.40;;
71610;SDS011;59459;51.172;6.682;2024-02-21T04:04:48;15.88;;;4.78;;
71610;SDS011;59459;51.172;6.682;2024-02-21T04:07:37;13.98;;;4.45;;
71610;SDS011;59459;51.172;6.682;2024-02-21T04:10:04;12.17;;;4.17;;
71610;SDS011;59459;51.172;6.682;2024-02-21T04:12:30;14.15;;;4.25;;
71610;SDS011;59459;51.172;6.682;2024-02-21T04:14:55;13.53;;;4.60;;
71610;SDS011;59459;51.172;6.682;2024-02-21T04:17:20;15.80;;;4.30;;
71610;SDS011;59459;51.172;6.682;2024-02-21T04:19:47;13.87;;;4.13;;
71610;SDS011;59459;51.172;6.682;2024-02-21T04:22:14;11.27;;;4.25;;
71610;SDS011;59459;51.172;6.682;2024-02-21T04:24:39;14.80;;;3.93;;
71610;SDS011;59459;51.172;6.682;2024-02-21T04:27:05;10.27;;;4.23;;
71610;SDS011;59459;51.172;6.682;2024-02-21T04:29:39;12.93;;;4.53;;
71610;SDS011;59459;51.172;6.682;2024-02-21T04:32:11;12.13;;;4.30;;
71610;SDS011;59459;51.172;6.682;2024-02-21T04:34:57;10.35;;;3.92;;
71610;SDS011;59459;51.172;6.682;2024-02-21T04:37:44;13.82;;;4.75;;
71610;SDS011;59459;51.172;6.682;2024-02-21T04:40:10;14.73;;;4.18;;
71610;SDS011;59459;51.172;6.682;2024-02-21T04:42:36;15.67;;;4.00;;
71610;SDS011;59459;51.172;6.682;2024-02-21T04:45:03;14.25;;;4.63;;
71610;SDS011;59459;51.172;6.682;2024-02-21T04:47:29;14.90;;;4.87;;
71610;SDS011;59459;51.172;6.682;2024-02-21T04:49:54;16.83;;;4.55;;
71610;SDS011;59459;51.172;6.682;2024-02-21T04:52:20;13.93;;;4.05;;
71610;SDS011;59459;51.172;6.682;2024-02-21T04:54:45;14.50;;;4.43;;
71610;SDS011;59459;51.172;6.682;2024-02-21T04:57:11;12.33;;;4.30;;
71610;SDS011;59459;51.172;6.682;2024-02-21T04:59:36;13.17;;;4.23;;
71610;SDS011;59459;51.172;6.682;2024-02-21T05:02:02;13.48;;;4.88;;
71610;SDS011;59459;51.172;6.682;2024-02-21T05:04:28;10.80;;;4.17;;
71610;SDS011;59459;51.172;6.682;2024-02-21T05:06:53;13.93;;;4.27;;
71610;SDS011;59459;51.172;6.682;2024-02-21T05:09:19;14.27;;;4.40;;
71610;SDS011;59459;51.172;6.682;2024-02-21T05:11:45;13.10;;;3.93;;
71610;SDS011;59459;51.172;6.682;2024-02-21T05:14:10;13.40;;;4.10;;
71610;SDS011;59459;51.172;6.682;2024-02-21T05:16:35;15.60;;;4.43;;
71610;SDS011;59459;51.172;6.682;2024-02-21T05:19:00;13.67;;;4.40;;
71610;SDS011;59459;51.172;6.682;2024-02-21T05:21:25;15.37;;;4.40;;
71610;SDS011;59459;51.172;6.682;2024-02-21T05:23:53;14.10;;;4.10;;
71610;SDS011;59459;51.172;6.682;2024-02-21T05:26:25;15.37;;;4.17;;
71610;SDS011;59459;51.172;6.682;2024-02-21T05:28:51;15.73;;;4.32;;
71610;SDS011;59459;51.172;6.682;2024-02-21T05:31:17;12.07;;;4.00;;
71610;SDS011;59459;51.172;6.682;2024-02-21T05:33:43;10.23;;;3.08;;
71610;SDS011;59459;51.172;6.682;2024-02-21T05:36:10;13.73;;;4.20;;
71610;SDS011;59459;51.172;6.682;2024-02-21T05:38:35;15.60;;;3.27;;
71610;SDS011;59459;51.172;6.682;2024-02-21T05:41:06;15.40;;;3.77;;
71610;SDS011;59459;51.172;6.682;2024-02-21T05:43:31;11.57;;;3.80;;
71610;SDS011;59459;51.172;6.682;2024-02-21T05:45:57;10.37;;;3.33;;
71610;SDS011;59459;51.172;6.682;2024-02-21T05:48:25;14.07;;;4.07;;
71610;SDS011;59459;51.172;6.682;2024-02-21T05:50:51;11.75;;;3.95;;
71610;SDS011;59459;51.172;6.682;2024-02-21T05:53:16;10.57;;;3.77;;
71610;SDS011;59459;51.172;6.682;2024-02-21T05:55:51;12.67;;;4.03;;
71610;SDS011;59459;51.172;6.682;2024-02-21T05:58:20;12.33;;;3.23;;
71610;SDS011;59459;51.172;6.682;2024-02-21T06:00:45;11.43;;;3.70;;
71610;SDS011;59459;51.172;6.682;2024-02-21T06:03:11;12.43;;;4.00;;
71610;SDS011;59459;51.172;6.682;2024-02-21T06:05:40;10.97;;;3.67;;
71610;SDS011;59459;51.172;6.682;2024-02-21T06:08:05;12.35;;;3.67;;
71610;SDS011;59459;51.172;6.682;2024-02-21T06:10:30;11.83;;;3.77;;
71610;SDS011;59459;51.172;6.682;2024-02-21T06:12:55;13.13;;;3.97;;
71610;SDS011;59459;51.172;6.682;2024-02-21T06:15:20;12.20;;;3.90;;
71610;SDS011;59459;51.172;6.682;2024-02-21T06:17:46;10.53;;;3.53;;
71610;SDS011;59459;51.172;6.682;2024-02-21T06:20:11;13.33;;;3.93;;
71610;SDS011;59459;51.172;6.682;2024-02-21T06:22:36;11.77;;;3.43;;
71610;SDS011;59459;51.172;6.682;2024-02-21T06:25:01;14.83;;;3.57;;
71610;SDS011;59459;51.172;6.682;2024-02-21T06:27:27;12.25;;;3.22;;
71610;SDS011;59459;51.172;6.682;2024-02-21T06:29:52;16.90;;;3.90;;
71610;SDS011;59459;51.172;6.682;2024-02-21T06:32:17;11.73;;;3.30;;
71610;SDS011;59459;51.172;6.682;2024-02-21T06:34:42;10.43;;;3.07;;
71610;SDS011;59459;51.172;6.682;2024-02-21T06:37:08;14.77;;;3.93;;
71610;SDS011;59459;51.172;6.682;2024-02-21T06:39:34;12.70;;;3.43;;
71610;SDS011;59459;51.172;6.682;2024-02-21T06:42:01;9.57;;;3.33;;
71610;SDS011;59459;51.172;6.682;2024-02-21T06:44:26;12.97;;;3.83;;
71610;SDS011;59459;51.172;6.682;2024-02-21T06:46:52;14.27;;;3.63;;
71610;SDS011;59459;51.172;6.682;2024-02-21T06:49:17;10.97;;;3.53;;
71610;SDS011;59459;51.172;6.682;2024-02-21T06:51:42;10.17;;;2.83;;
71610;SDS011;59459;51.172;6.682;2024-02-21T06:54:08;9.23;;;3.27;;
71610;SDS011;59459;51.172;6.682;2024-02-21T06:56:34;10.77;;;3.13;;
71610;SDS011;59459;51.172;6.682;2024-02-21T06:58:59;8.30;;;3.27;;
71610;SDS011;59459;51.172;6.682;2024-02-21T07:01:24;14.20;;;3.40;;
71610;SDS011;59459;51.172;6.682;2024-02-21T07:03:50;11.40;;;3.27;;
71610;SDS011;59459;51.172;6.682;2024-02-21T07:06:15;10.73;;;3.20;;
71610;SDS011;59459;51.172;6.682;2024-02-21T07:08:40;8.50;;;2.90;;
71610;SDS011;59459;51.172;6.682;2024-02-21T07:11:05;11.47;;;3.40;;
71610;SDS011;59459;51.172;6.682;2024-02-21T07:13:31;11.83;;;2.83;;
71610;SDS011;59459;51.172;6.682;2024-02-21T07:15:57;9.52;;;2.47;;
71610;SDS011;59459;51.172;6.682;2024-02-21T07:18:22;6.77;;;2.13;;
71610;SDS011;59459;51.172;6.682;2024-02-21T07:20:47;7.67;;;2.90;;
71610;SDS011;59459;51.172;6.682;2024-02-21T07:23:12;8.10;;;2.50;;
71610;SDS011;59459;51.172;6.682;2024-02-21T07:25:38;8.63;;;2.50;;
71610;SDS011;59459;51.172;6.682;2024-02-21T07:28:04;8.98;;;3.25;;
71610;SDS011;59459;51.172;6.682;2024-02-21T07:30:29;10.00;;;3.33;;
71610;SDS011;59459;51.172;6.682;2024-02-21T07:32:55;9.90;;;3.47;;
71610;SDS011;59459;51.172;6.682;2024-02-21T07:35:20;10.93;;;3.50;;
71610;SDS011;59459;51.172;6.682;2024-02-21T07:37:45;12.27;;;3.47;;
71610;SDS011;59459;51.172;6.682;2024-02-21T07:40:13;10.33;;;2.93;;
71610;SDS011;59459;51.172;6.682;2024-02-21T07:42:39;12.63;;;3.65;;
71610;SDS011;59459;51.172;6.682;2024-02-21T07:45:06;11.33;;;4.47;;
71610;SDS011;59459;51.172;6.682;2024-02-21T07:47:31;14.07;;;3.95;;
71610;SDS011;59459;51.172;6.682;2024-02-21T07:49:56;11.73;;;3.23;;
71610;SDS011;59459;51.172;6.682;2024-02-21T07:52:21;9.60;;;2.70;;
71610;SDS011;59459;51.172;6.682;2024-02-21T07:54:47;9.33;;;2.80;;
71610;SDS011;59459;51.172;6.682;2024-02-21T07:57:12;12.87;;;2.83;;
71610;SDS011;59459;51.172;6.682;2024-02-21T07:59:37;12.77;;;3.00;;
71610;SDS011;59459;51.172;6.682;2024-02-21T08:02:02;13.60;;;3.00;;
71610;SDS011;59459;51.172;6.682;2024-02-21T08:04:31;10.43;;;3.10;;
71610;SDS011;59459;51.172;6.682;2024-02-21T08:06:56;8.53;;;2.23;;
71610;SDS011;59459;51.172;6.682;2024-02-21T08:09:24;8.13;;;2.90;;
71610;SDS011;59459;51.172;6.682;2024-02-21T08:11:49;11.20;;;2.72;;
71610;SDS011;59459;51.172;6.682;2024-02-21T08:14:14;12.57;;;3.53;;
71610;SDS011;59459;51.172;6.682;2024-02-21T08:16:41;13.33;;;3.50;;
71610;SDS011;59459;51.172;6.682;2024-02-21T08:19:06;15.43;;;3.40;;
71610;SDS011;59459;51.172;6.682;2024-02-21T08:21:31;12.10;;;2.80;;
71610;SDS011;59459;51.172;6.682;2024-02-21T08:23:56;15.10;;;4.20;;
71610;SDS011;59459;51.172;6.682;2024-02-21T08:26:22;12.30;;;3.90;;
71610;SDS011;59459;51.172;6.682;2024-02-21T08:28:47;12.70;;;3.47;;
71610;SDS011;59459;51.172;6.682;2024-02-21T08:31:18;14.73;;;3.50;;
71610;SDS011;59459;51.172;6.682;2024-02-21T08:33:43;15.27;;;3.87;;
71610;SDS011;59459;51.172;6.682;2024-02-21T08:36:08;10.80;;;3.87;;
71610;SDS011;59459;51.172;6.682;2024-02-21T08:38:33;11.33;;;2.87;;
71610;SDS011;59459;51.172;6.682;2024-02-21T08:40:58;12.13;;;3.40;;
71610;SDS011;59459;51.172;6.682;2024-02-21T08:43:24;11.23;;;3.77;;
71610;SDS011;59459;51.172;6.682;2024-02-21T08:45:50;10.23;;;2.90;;
71610;SDS011;59459;51.172;6.682;2024-02-21T08:48:15;15.43;;;3.90;;
71610;SDS011;59459;51.172;6.682;2024-02-21T08:50:40;9.13;;;3.00;;
71610;SDS011;59459;51.172;6.682;2024-02-21T08:53:06;10.60;;;2.73;;
71610;SDS011;59459;51.172;6.682;2024-02-21T08:55:31;9.07;;;2.75;;
71610;SDS011;59459;51.172;6.682;2024-02-21T08:57:56;9.17;;;2.90;;
71610;SDS011;59459;51.172;6.682;2024-02-21T09:00:21;10.73;;;3.03;;
71610;SDS011;59459;51.172;6.682;2024-02-21T09:02:51;10.55;;;2.80;;
71610;SDS011;59459;51.172;6.682;2024-02-21T09:05:17;14.83;;;3.03;;
71610;SDS011;59459;51.172;6.682;2024-02-21T09:07:43;7.72;;;2.83;;
71610;SDS011;59459;51.172;6.682;2024-02-21T09:10:08;12.97;;;3.13;;
71610;SDS011;59459;51.172;6.682;2024-02-21T09:14:36;12.30;;;3.47;;
71610;SDS011;59459;51.172;6.682;2024-02-21T09:17:02;9.55;;;2.53;;
71610;SDS011;59459;51.172;6.682;2024-02-21T09:19:27;10.93;;;3.50;;
71610;SDS011;59459;51.172;6.682;2024-02-21T09:21:53;9.83;;;2.20;;
71610;SDS011;59459;51.172;6.682;2024-02-21T09:24:18;6.90;;;2.17;;
71610;SDS011;59459;51.172;6.682;2024-02-21T09:26:43;9.30;;;3.13;;
71610;SDS011;59459;51.172;6.682;2024-02-21T09:29:09;14.67;;;3.07;;
71610;SDS011;59459;51.172;6.682;2024-02-21T09:31:34;9.10;;;3.10;;
71610;SDS011;59459;51.172;6.682;2024-02-21T09:33:59;10.60;;;2.97;;
71610;SDS011;59459;51.172;6.682;2024-02-21T09:36:24;10.40;;;2.90;;
71610;SDS011;59459;51.172;6.682;2024-02-21T09:38:49;7.63;;;2.43;;
71610;SDS011;59459;51.172;6.682;2024-02-21T09:41:18;8.47;;;2.57;;
71610;SDS011;59459;51.172;6.682;2024-02-21T09:43:44;9.10;;;2.55;;
71610;SDS011;59459;51.172;6.682;2024-02-21T09:46:16;9.98;;;2.78;;
71610;SDS011;59459;51.172;6.682;2024-02-21T09:51:33;9.27;;;3.00;;
71610;SDS011;59459;51.172;6.682;2024-02-21T09:53:59;10.95;;;3.33;;
71610;SDS011;59459;51.172;6.682;2024-02-21T09:56:24;9.00;;;2.40;;
71610;SDS011;59459;51.172;6.682;2024-02-21T09:58:50;6.50;;;2.30;;
71610;SDS011;59459;51.172;6.682;2024-02-21T10:01:15;8.23;;;2.77;;
71610;SDS011;59459;51.172;6.682;2024-02-21T10:03:41;6.40;;;1.77;;
71610;SDS011;59459;51.172;6.682;2024-02-21T10:06:07;6.63;;;2.67;;
71610;SDS011;59459;51.172;6.682;2024-02-21T10:08:32;8.07;;;3.00;;
71610;SDS011;59459;51.172;6.682;2024-02-21T10:10:57;12.20;;;2.63;;
71610;SDS011;59459;51.172;6.682;2024-02-21T10:13:25;10.27;;;2.35;;
71610;SDS011;59459;51.172;6.682;2024-02-21T10:16:01;6.35;;;2.10;;
71610;SDS011;59459;51.172;6.682;2024-02-21T10:18:27;8.40;;;1.98;;
71610;SDS011;59459;51.172;6.682;2024-02-21T10:23:27;7.78;;;2.40;;
71610;SDS011;59459;51.172;6.682;2024-02-21T10:25:52;5.40;;;2.23;;
71610;SDS011;59459;51.172;6.682;2024-02-21T10:28:17;7.23;;;2.10;;
71610;SDS011;59459;51.172;6.682;2024-02-21T10:30:50;9.80;;;1.83;;
71610;SDS011;59459;51.172;6.682;2024-02-21T10:33:16;6.33;;;2.50;;
71610;SDS011;59459;51.172;6.682;2024-02-21T10:35:45;8.45;;;1.63;;
71610;SDS011;59459;51.172;6.682;2024-02-21T10:38:10;7.73;;;1.93;;
71610;SDS011;59459;51.172;6.682;2024-02-21T10:40:36;6.40;;;2.23;;
71610;SDS011;59459;51.172;6.682;2024-02-21T10:43:01;9.07;;;2.17;;
71610;SDS011;59459;51.172;6.682;2024-02-21T10:45:30;6.93;;;1.80;;
71610;SDS011;59459;51.172;6.682;2024-02-21T10:47:59;7.87;;;2.27;;
71610;SDS011;59459;51.172;6.682;2024-02-21T10:50:26;6.07;;;1.98;;
71610;SDS011;59459;51.172;6.682;2024-02-21T10:53:01;5.53;;;2.10;;
71610;SDS011;59459;51.172;6.682;2024-02-21T10:55:35;9.55;;;2.35;;
71610;SDS011;59459;51.172;6.682;2024-02-21T10:58:01;6.75;;;1.88;;
71610;SDS011;59459;51.172;6.682;2024-02-21T11:00:26;5.03;;;1.63;;
71610;SDS011;59459;51.172;6.682;2024-02-21T11:02:55;11.93;;;2.67;;
71610;SDS011;59459;51.172;6.682;2024-02-21T11:05:21;8.63;;;2.40;;
71610;SDS011;59459;51.172;6.682;2024-02-21T11:07:46;6.97;;;2.27;;
71610;SDS011;59459;51.172;6.682;2024-02-21T11:10:22;6.83;;;2.33;;
71610;SDS011;59459;51.172;6.682;2024-02-21T11:12:48;8.10;;;2.28;;
71610;SDS011;59459;51.172;6.682;2024-02-21T11:15:13;6.87;;;1.77;;
71610;SDS011;59459;51.172;6.682;2024-02-21T11:17:38;8.47;;;3.30;;
71610;SDS011;59459;51.172;6.682;2024-02-21T11:20:13;8.77;;;2.90;;
71610;SDS011;59459;51.172;6.682;2024-02-21T11:22:41;6.18;;;2.17;;
71610;SDS011;59459;51.172;6.682;2024-02-21T11:25:07;6.70;;;2.10;;
71610;SDS011;59459;51.172;6.682;2024-02-21T11:27:36;10.23;;;2.20;;
71610;SDS011;59459;51.172;6.682;2024-02-21T11:30:03;8.23;;;2.17;;
71610;SDS011;59459;51.172;6.682;2024-02-21T11:32:29;7.07;;;2.40;;
71610;SDS011;59459;51.172;6.682;2024-02-21T11:34:59;10.02;;;2.47;;
71610;SDS011;59459;51.172;6.682;2024-02-21T11:37:31;5.55;;;2.47;;
71610;SDS011;59459;51.172;6.682;2024-02-21T11:40:01;6.97;;;1.53;;
71610;SDS011;59459;51.172;6.682;2024-02-21T11:42:28;9.27;;;2.72;;
71610;SDS011;59459;51.172;6.682;2024-02-21T11:44:54;7.38;;;2.20;;
71610;SDS011;59459;51.172;6.682;2024-02-21T11:47:21;8.95;;;1.83;;
71610;SDS011;59459;51.172;6.682;2024-02-21T11:49:47;7.70;;;2.87;;
71610;SDS011;59459;51.172;6.682;2024-02-21T11:52:15;9.63;;;2.00;;
71610;SDS011;59459;51.172;6.682;2024-02-21T11:54:40;6.80;;;2.10;;
71610;SDS011;59459;51.172;6.682;2024-02-21T11:57:06;5.97;;;1.90;;
71610;SDS011;59459;51.172;6.682;2024-02-21T11:59:31;4.63;;;1.77;;
71610;SDS011;59459;51.172;6.682;2024-02-21T12:01:57;8.45;;;2.30;;
71610;SDS011;59459;51.172;6.682;2024-02-21T12:04:23;9.37;;;2.13;;
71610;SDS011;59459;51.172;6.682;2024-02-21T12:06:52;7.97;;;2.17;;
71610;SDS011;59459;51.172;6.682;2024-02-21T12:09:17;7.90;;;2.53;;
71610;SDS011;59459;51.172;6.682;2024-02-21T12:11:43;7.07;;;2.50;;
71610;SDS011;59459;51.172;6.682;2024-02-21T12:14:08;5.25;;;1.60;;
71610;SDS011;59459;51.172;6.682;2024-02-21T12:16:34;11.30;;;1.93;;
71610;SDS011;59459;51.172;6.682;2024-02-21T12:19:01;8.60;;;1.83;;
71610;SDS011;59459;51.172;6.682;2024-02-21T12:21:27;12.18;;;2.30;;
71610;SDS011;59459;51.172;6.682;2024-02-21T12:23:56;6.47;;;1.53;;
71610;SDS011;59459;51.172;6.682;2024-02-21T12:26:22;5.22;;;1.67;;
71610;SDS011;59459;51.172;6.682;2024-02-21T12:28:47;4.17;;;1.30;;
71610;SDS011;59459;51.172;6.682;2024-02-21T12:31:13;9.27;;;2.03;;
71610;SDS011;59459;51.172;6.682;2024-02-21T12:33:38;6.93;;;1.87;;
71610;SDS011;59459;51.172;6.682;2024-02-21T12:36:03;8.93;;;2.70;;
71610;SDS011;59459;51.172;6.682;2024-02-21T12:38:29;7.37;;;2.33;;
71610;SDS011;59459;51.172;6.682;2024-02-21T12:40:54;5.63;;;1.63;;
71610;SDS011;59459;51.172;6.682;2024-02-21T12:43:19;10.83;;;2.27;;
71610;SDS011;59459;51.172;6.682;2024-02-21T12:45:45;8.27;;;2.10;;
71610;SDS011;59459;51.172;6.682;2024-02-21T12:48:10;6.53;;;2.23;;
71610;SDS011;59459;51.172;6.682;2024-02-21T12:50:35;9.73;;;1.87;;
71610;SDS011;59459;51.172;6.682;2024-02-21T12:53:00;5.10;;;1.80;;
71610;SDS011;59459;51.172;6.682;2024-02-21T12:55:26;6.03;;;1.67;;
71610;SDS011;59459;51.172;6.682;2024-02-21T12:57:51;7.10;;;2.10;;
71610;SDS011;59459;51.172;6.682;2024-02-21T13:00:16;6.13;;;1.80;;
71610;SDS011;59459;51.172;6.682;2024-02-21T13:02:41;6.73;;;1.90;;
71610;SDS011;59459;51.172;6.682;2024-02-21T13:05:07;6.25;;;1.92;;
71610;SDS011;59459;51.172;6.682;2024-02-21T13:07:33;4.77;;;2.10;;
71610;SDS011;59459;51.172;6.682;2024-02-21T13:09:58;7.00;;;2.23;;
71610;SDS011;59459;51.172;6.682;2024-02-21T13:12:23;7.70;;;1.73;;
71610;SDS011;59459;51.172;6.682;2024-02-21T13:14:51;7.97;;;2.08;;
71610;SDS011;59459;51.172;6.682;2024-02-21T13:17:16;8.83;;;2.40;;
71610;SDS011;59459;51.172;6.682;2024-02-21T13:19:41;6.37;;;2.07;;
71610;SDS011;59459;51.172;6.682;2024-02-21T13:22:06;6.00;;;1.97;;
71610;SDS011;59459;51.172;6.682;2024-02-21T13:24:32;7.63;;;2.10;;
71610;SDS011;59459;51.172;6.682;2024-02-21T13:26:57;6.17;;;2.20;;
71610;SDS011;59459;51.172;6.682;2024-02-21T13:29:22;7.67;;;2.23;;
71610;SDS011;59459;51.172;6.682;2024-02-21T13:31:47;7.80;;;2.10;;
71610;SDS011;59459;51.172;6.682;2024-02-21T13:34:13;7.33;;;2.40;;
71610;SDS011;59459;51.172;6.682;2024-02-21T13:36:38;10.33;;;2.30;;
71610;SDS011;59459;51.172;6.682;2024-02-21T13:39:04;8.10;;;2.13;;
71610;SDS011;59459;51.172;6.682;2024-02-21T13:41:33;10.93;;;3.30;;
71610;SDS011;59459;51.172;6.682;2024-02-21T13:43:58;7.93;;;2.20;;
71610;SDS011;59459;51.172;6.682;2024-02-21T13:46:25;8.13;;;2.60;;
71610;SDS011;59459;51.172;6.682;2024-02-21T13:48:52;11.68;;;2.30;;
71610;SDS011;59459;51.172;6.682;2024-02-21T13:51:17;12.18;;;2.45;;
71610;SDS011;59459;51.172;6.682;2024-02-21T13:53:45;7.80;;;2.17;;
71610;SDS011;59459;51.172;6.682;2024-02-21T13:56:10;7.73;;;1.87;;
71610;SDS011;59459;51.172;6.682;2024-02-21T13:58:35;7.53;;;1.80;;
71610;SDS011;59459;51.172;6.682;2024-02-21T14:01:01;7.10;;;1.87;;
71610;SDS011;59459;51.172;6.682;2024-02-21T14:03:26;5.30;;;2.10;;
71610;SDS011;59459;51.172;6.682;2024-02-21T14:05:51;8.30;;;1.77;;
71610;SDS011;59459;51.172;6.682;2024-02-21T14:08:16;7.00;;;2.17;;
71610;SDS011;59459;51.172;6.682;2024-02-21T14:10:42;7.17;;;2.30;;
71610;SDS011;59459;51.172;6.682;2024-02-21T14:13:07;7.90;;;2.00;;
71610;SDS011;59459;51.172;6.682;2024-02-21T14:15:32;8.37;;;2.27;;
71610;SDS011;59459;51.172;6.682;2024-02-21T14:17:57;7.07;;;1.83;;
71610;SDS011;59459;51.172;6.682;2024-02-21T14:20:23;9.03;;;2.17;;
71610;SDS011;59459;51.172;6.682;2024-02-21T14:22:48;11.90;;;2.40;;
71610;SDS011;59459;51.172;6.682;2024-02-21T14:25:13;7.47;;;2.30;;
71610;SDS011;59459;51.172;6.682;2024-02-21T14:27:40;8.03;;;2.53;;
71610;SDS011;59459;51.172;6.682;2024-02-21T14:30:05;4.47;;;1.53;;
71610;SDS011;59459;51.172;6.682;2024-02-21T14:32:33;9.50;;;2.30;;
71610;SDS011;59459;51.172;6.682;2024-02-21T14:34:59;6.40;;;2.20;;
71610;SDS011;59459;51.172;6.682;2024-02-21T14:37:24;5.15;;;1.58;;
71610;SDS011;59459;51.172;6.682;2024-02-21T14:39:49;6.40;;;2.00;;